Estación Meteorológica Peña el Pijo (Robertgarden) [ 06/14/24 10:08:44 CEST ]

Fecha Hora Presion(HPa) Temp (°C) Humedad % Rocio (°C) Viento ( m/s) Direccion Lluvia 1Hora(mm) Lluvia 24H(mm) LLuvia Total(mm)
2010-Apr-01 01:01:21 1009.200 5.9 65 -0.2         104.63
2010-Apr-01 02:01:16 1009.000 4.9 68 -0.5         104.63
2010-Apr-01 03:03:17 1008.700 4.2 72 -0.4         104.63
2010-Apr-01 04:01:13 1008.500 3.6 74 -0.6         104.63
2010-Apr-01 05:01:17 1008.100 2.9 77 -0.7         104.63
2010-Apr-01 06:01:14 1008.100 1.9 79 -1.4         104.63
2010-Apr-01 07:01:13 1008.500 0.9 81 -2.0         104.63
2010-Apr-01 08:01:12 1009.000 0.3 83 -2.2         104.63
2010-Apr-01 09:01:14 1009.100 3.1 84 0.6         104.63
2010-Apr-01 10:01:13 1009.200 8.5 59 0.9         104.63
2010-Apr-01 11:01:11 1009.600 10.1 53 0.9         104.63
2010-Apr-01 12:01:14 1010.000 12.3 49 1.9         104.63
2010-Apr-01 13:01:10 1009.800 15.3 40 1.8         104.63
2010-Apr-01 14:01:16 1009.700 16.1 35 0.5         104.63
2010-Apr-01 15:01:16 1009.300 16.3 34 0.3         104.63
2010-Apr-01 16:01:12 1009.100 16.8 27 -2.5 0.8 S     104.63
2010-Apr-01 17:01:16 1008.800 16.9 24 -4.0         104.63
2010-Apr-01 18:01:12 1009.100 16.1 27 -3.1         104.63
2010-Apr-01 19:01:16 1009.600 14.1 32 -2.4         104.63
2010-Apr-01 20:01:14 1010.300 10.9 40 -2.2         104.63
2010-Apr-01 21:01:14 1011.200 8.7 49 -1.5         104.63
2010-Apr-01 22:01:14 1011.500 6.1 57 -1.8         104.63
2010-Apr-01 23:01:14 1012.500 4.3 65 -1.8         104.63

Temperatura Máxima:16°    Temperatura Mínima:
Presión Máxima:1012.500 Hpa    Presión Mínima:1008.100 Hpa


Volver